sensor_id;sensor_type;location;lat;lon;timestamp;P1;durP1;ratioP1;P2;durP2;ratioP2
13083;SDS011;6608;48.790;9.198;2022-07-22T00:01:57;184.33;;;72.83;;
13083;SDS011;6608;48.790;9.198;2022-07-22T00:04:23;188.17;;;74.97;;
13083;SDS011;6608;48.790;9.198;2022-07-22T00:06:51;184.43;;;73.83;;
13083;SDS011;6608;48.790;9.198;2022-07-22T00:09:17;185.57;;;73.67;;
13083;SDS011;6608;48.790;9.198;2022-07-22T00:11:44;183.00;;;73.03;;
13083;SDS011;6608;48.790;9.198;2022-07-22T00:14:10;188.77;;;74.40;;
13083;SDS011;6608;48.790;9.198;2022-07-22T00:16:38;187.20;;;73.30;;
13083;SDS011;6608;48.790;9.198;2022-07-22T00:19:04;183.77;;;72.27;;
13083;SDS011;6608;48.790;9.198;2022-07-22T00:21:30;185.07;;;72.83;;
13083;SDS011;6608;48.790;9.198;2022-07-22T00:23:58;185.30;;;73.60;;
13083;SDS011;6608;48.790;9.198;2022-07-22T00:26:25;182.73;;;72.87;;
13083;SDS011;6608;48.790;9.198;2022-07-22T00:28:51;185.10;;;73.57;;
13083;SDS011;6608;48.790;9.198;2022-07-22T00:31:18;187.53;;;73.30;;
13083;SDS011;6608;48.790;9.198;2022-07-22T00:33:44;183.47;;;72.50;;
13083;SDS011;6608;48.790;9.198;2022-07-22T00:36:11;182.50;;;72.30;;
13083;SDS011;6608;48.790;9.198;2022-07-22T00:38:37;184.90;;;72.63;;
13083;SDS011;6608;48.790;9.198;2022-07-22T00:41:05;186.67;;;72.53;;
13083;SDS011;6608;48.790;9.198;2022-07-22T00:46:13;186.23;;;72.30;;
13083;SDS011;6608;48.790;9.198;2022-07-22T00:48:40;183.07;;;72.83;;
13083;SDS011;6608;48.790;9.198;2022-07-22T00:51:06;186.80;;;73.13;;
13083;SDS011;6608;48.790;9.198;2022-07-22T00:53:33;182.67;;;72.10;;
13083;SDS011;6608;48.790;9.198;2022-07-22T00:55:59;184.13;;;72.43;;
13083;SDS011;6608;48.790;9.198;2022-07-22T00:58:27;181.83;;;72.10;;
13083;SDS011;6608;48.790;9.198;2022-07-22T01:00:54;183.87;;;73.37;;
13083;SDS011;6608;48.790;9.198;2022-07-22T01:03:20;187.43;;;72.57;;
13083;SDS011;6608;48.790;9.198;2022-07-22T01:05:46;182.27;;;73.17;;
13083;SDS011;6608;48.790;9.198;2022-07-22T01:08:13;184.17;;;72.87;;
13083;SDS011;6608;48.790;9.198;2022-07-22T01:10:39;183.13;;;72.83;;
13083;SDS011;6608;48.790;9.198;2022-07-22T01:13:06;186.00;;;72.43;;
13083;SDS011;6608;48.790;9.198;2022-07-22T01:15:33;184.10;;;72.33;;
13083;SDS011;6608;48.790;9.198;2022-07-22T01:18:00;188.63;;;73.00;;
13083;SDS011;6608;48.790;9.198;2022-07-22T01:20:28;183.33;;;72.57;;
13083;SDS011;6608;48.790;9.198;2022-07-22T01:22:54;184.20;;;72.63;;
13083;SDS011;6608;48.790;9.198;2022-07-22T01:25:21;182.60;;;73.17;;
13083;SDS011;6608;48.790;9.198;2022-07-22T01:27:47;186.13;;;73.43;;
13083;SDS011;6608;48.790;9.198;2022-07-22T01:30:14;184.30;;;72.90;;
13083;SDS011;6608;48.790;9.198;2022-07-22T01:32:40;189.40;;;73.73;;
13083;SDS011;6608;48.790;9.198;2022-07-22T01:35:07;185.83;;;72.93;;
13083;SDS011;6608;48.790;9.198;2022-07-22T01:37:35;184.73;;;72.27;;
13083;SDS011;6608;48.790;9.198;2022-07-22T01:40:02;185.27;;;72.60;;
13083;SDS011;6608;48.790;9.198;2022-07-22T01:42:28;186.73;;;73.37;;
13083;SDS011;6608;48.790;9.198;2022-07-22T01:44:55;185.00;;;73.17;;
13083;SDS011;6608;48.790;9.198;2022-07-22T01:47:21;183.90;;;72.27;;
13083;SDS011;6608;48.790;9.198;2022-07-22T01:49:48;187.33;;;74.13;;
13083;SDS011;6608;48.790;9.198;2022-07-22T01:52:14;184.43;;;72.97;;
13083;SDS011;6608;48.790;9.198;2022-07-22T01:54:42;186.40;;;74.37;;
13083;SDS011;6608;48.790;9.198;2022-07-22T01:57:08;184.43;;;72.83;;
13083;SDS011;6608;48.790;9.198;2022-07-22T01:59:35;183.07;;;72.13;;
13083;SDS011;6608;48.790;9.198;2022-07-22T02:02:01;182.40;;;72.30;;
13083;SDS011;6608;48.790;9.198;2022-07-22T02:04:28;188.43;;;73.13;;
13083;SDS011;6608;48.790;9.198;2022-07-22T02:06:54;185.80;;;74.40;;
13083;SDS011;6608;48.790;9.198;2022-07-22T02:09:21;189.37;;;73.90;;
13083;SDS011;6608;48.790;9.198;2022-07-22T02:11:49;185.53;;;73.73;;
13083;SDS011;6608;48.790;9.198;2022-07-22T02:14:30;185.50;;;74.20;;
13083;SDS011;6608;48.790;9.198;2022-07-22T02:16:57;186.90;;;72.83;;
13083;SDS011;6608;48.790;9.198;2022-07-22T02:19:23;183.97;;;72.80;;
13083;SDS011;6608;48.790;9.198;2022-07-22T02:21:49;185.57;;;73.47;;
13083;SDS011;6608;48.790;9.198;2022-07-22T02:24:16;184.97;;;73.47;;
13083;SDS011;6608;48.790;9.198;2022-07-22T02:26:42;185.03;;;73.40;;
13083;SDS011;6608;48.790;9.198;2022-07-22T02:29:10;186.93;;;73.43;;
13083;SDS011;6608;48.790;9.198;2022-07-22T02:31:37;184.80;;;72.70;;
13083;SDS011;6608;48.790;9.198;2022-07-22T02:34:03;186.47;;;74.07;;
13083;SDS011;6608;48.790;9.198;2022-07-22T02:36:30;181.93;;;73.33;;
13083;SDS011;6608;48.790;9.198;2022-07-22T02:38:56;185.60;;;73.87;;
13083;SDS011;6608;48.790;9.198;2022-07-22T02:41:23;184.87;;;73.90;;
13083;SDS011;6608;48.790;9.198;2022-07-22T02:43:49;184.27;;;73.97;;
13083;SDS011;6608;48.790;9.198;2022-07-22T02:46:20;187.40;;;74.20;;
13083;SDS011;6608;48.790;9.198;2022-07-22T02:48:46;186.00;;;74.00;;
13083;SDS011;6608;48.790;9.198;2022-07-22T02:51:12;186.73;;;74.10;;
13083;SDS011;6608;48.790;9.198;2022-07-22T02:53:39;186.37;;;73.17;;
13083;SDS011;6608;48.790;9.198;2022-07-22T02:56:05;187.33;;;73.60;;
13083;SDS011;6608;48.790;9.198;2022-07-22T02:58:32;184.97;;;74.20;;
13083;SDS011;6608;48.790;9.198;2022-07-22T03:00:58;184.00;;;73.67;;
13083;SDS011;6608;48.790;9.198;2022-07-22T03:03:29;182.67;;;73.17;;
13083;SDS011;6608;48.790;9.198;2022-07-22T03:05:55;185.23;;;73.57;;
13083;SDS011;6608;48.790;9.198;2022-07-22T03:08:22;186.13;;;73.67;;
13083;SDS011;6608;48.790;9.198;2022-07-22T03:10:48;185.63;;;74.83;;
13083;SDS011;6608;48.790;9.198;2022-07-22T03:13:15;185.47;;;73.83;;
13083;SDS011;6608;48.790;9.198;2022-07-22T03:15:41;185.47;;;73.47;;
13083;SDS011;6608;48.790;9.198;2022-07-22T03:18:08;194.27;;;73.33;;
13083;SDS011;6608;48.790;9.198;2022-07-22T03:20:36;183.10;;;72.77;;
13083;SDS011;6608;48.790;9.198;2022-07-22T03:23:02;187.07;;;74.13;;
13083;SDS011;6608;48.790;9.198;2022-07-22T03:25:29;184.87;;;73.23;;
13083;SDS011;6608;48.790;9.198;2022-07-22T03:27:56;186.07;;;73.87;;
13083;SDS011;6608;48.790;9.198;2022-07-22T03:30:22;183.50;;;73.93;;
13083;SDS011;6608;48.790;9.198;2022-07-22T03:32:49;186.33;;;74.30;;
13083;SDS011;6608;48.790;9.198;2022-07-22T03:35:16;185.80;;;73.90;;
13083;SDS011;6608;48.790;9.198;2022-07-22T03:37:44;185.40;;;73.77;;
13083;SDS011;6608;48.790;9.198;2022-07-22T03:40:11;184.87;;;74.50;;
13083;SDS011;6608;48.790;9.198;2022-07-22T03:42:37;184.50;;;73.87;;
13083;SDS011;6608;48.790;9.198;2022-07-22T03:45:04;185.70;;;74.13;;
13083;SDS011;6608;48.790;9.198;2022-07-22T03:47:31;186.13;;;74.33;;
13083;SDS011;6608;48.790;9.198;2022-07-22T03:49:57;185.37;;;74.37;;
13083;SDS011;6608;48.790;9.198;2022-07-22T03:52:24;187.70;;;75.53;;
13083;SDS011;6608;48.790;9.198;2022-07-22T03:54:52;187.87;;;75.43;;
13083;SDS011;6608;48.790;9.198;2022-07-22T03:57:18;184.53;;;74.57;;
13083;SDS011;6608;48.790;9.198;2022-07-22T03:59:45;185.07;;;73.80;;
13083;SDS011;6608;48.790;9.198;2022-07-22T04:02:11;187.83;;;74.37;;
13083;SDS011;6608;48.790;9.198;2022-07-22T04:04:38;187.77;;;74.57;;
13083;SDS011;6608;48.790;9.198;2022-07-22T04:07:04;187.17;;;74.50;;
13083;SDS011;6608;48.790;9.198;2022-07-22T04:09:31;185.63;;;73.80;;
13083;SDS011;6608;48.790;9.198;2022-07-22T04:11:59;184.07;;;74.20;;
13083;SDS011;6608;48.790;9.198;2022-07-22T04:14:26;186.17;;;74.13;;
13083;SDS011;6608;48.790;9.198;2022-07-22T04:16:52;187.53;;;74.07;;
13083;SDS011;6608;48.790;9.198;2022-07-22T04:19:18;187.10;;;74.50;;
13083;SDS011;6608;48.790;9.198;2022-07-22T04:21:45;185.53;;;74.53;;
13083;SDS011;6608;48.790;9.198;2022-07-22T04:24:11;185.20;;;74.33;;
13083;SDS011;6608;48.790;9.198;2022-07-22T04:26:38;185.63;;;74.33;;
13083;SDS011;6608;48.790;9.198;2022-07-22T04:29:06;183.97;;;74.33;;
13083;SDS011;6608;48.790;9.198;2022-07-22T04:31:32;190.63;;;74.77;;
13083;SDS011;6608;48.790;9.198;2022-07-22T04:33:58;184.97;;;74.90;;
13083;SDS011;6608;48.790;9.198;2022-07-22T04:36:25;185.70;;;76.00;;
13083;SDS011;6608;48.790;9.198;2022-07-22T04:38:51;184.90;;;74.60;;
13083;SDS011;6608;48.790;9.198;2022-07-22T04:41:18;189.47;;;74.43;;
13083;SDS011;6608;48.790;9.198;2022-07-22T04:43:44;184.30;;;74.27;;
13083;SDS011;6608;48.790;9.198;2022-07-22T04:46:12;183.43;;;73.93;;
13083;SDS011;6608;48.790;9.198;2022-07-22T04:48:39;186.10;;;74.17;;
13083;SDS011;6608;48.790;9.198;2022-07-22T04:51:05;187.50;;;74.60;;
13083;SDS011;6608;48.790;9.198;2022-07-22T04:53:31;186.90;;;75.60;;
13083;SDS011;6608;48.790;9.198;2022-07-22T04:55:58;185.33;;;74.73;;
13083;SDS011;6608;48.790;9.198;2022-07-22T04:58:24;186.57;;;74.70;;
13083;SDS011;6608;48.790;9.198;2022-07-22T05:00:51;186.10;;;75.30;;
13083;SDS011;6608;48.790;9.198;2022-07-22T05:03:19;183.63;;;74.47;;
13083;SDS011;6608;48.790;9.198;2022-07-22T05:05:45;187.07;;;76.53;;
13083;SDS011;6608;48.790;9.198;2022-07-22T05:08:12;184.97;;;75.40;;
13083;SDS011;6608;48.790;9.198;2022-07-22T05:10:38;185.10;;;74.73;;
13083;SDS011;6608;48.790;9.198;2022-07-22T05:13:04;187.10;;;75.37;;
13083;SDS011;6608;48.790;9.198;2022-07-22T05:15:31;190.20;;;76.37;;
13083;SDS011;6608;48.790;9.198;2022-07-22T05:17:57;185.73;;;75.50;;
13083;SDS011;6608;48.790;9.198;2022-07-22T05:20:25;185.77;;;74.43;;
13083;SDS011;6608;48.790;9.198;2022-07-22T05:22:52;189.23;;;74.63;;
13083;SDS011;6608;48.790;9.198;2022-07-22T05:25:18;185.33;;;75.63;;
13083;SDS011;6608;48.790;9.198;2022-07-22T05:27:51;184.07;;;75.60;;
13083;SDS011;6608;48.790;9.198;2022-07-22T05:30:17;185.67;;;75.20;;
13083;SDS011;6608;48.790;9.198;2022-07-22T05:32:44;187.27;;;74.93;;
13083;SDS011;6608;48.790;9.198;2022-07-22T05:35:11;186.63;;;75.60;;
13083;SDS011;6608;48.790;9.198;2022-07-22T05:37:39;185.90;;;75.10;;
13083;SDS011;6608;48.790;9.198;2022-07-22T05:40:06;185.97;;;76.87;;
13083;SDS011;6608;48.790;9.198;2022-07-22T05:42:32;185.97;;;75.80;;
13083;SDS011;6608;48.790;9.198;2022-07-22T05:44:59;186.10;;;76.67;;
13083;SDS011;6608;48.790;9.198;2022-07-22T05:47:25;184.73;;;75.90;;
13083;SDS011;6608;48.790;9.198;2022-07-22T05:49:52;187.63;;;77.00;;
13083;SDS011;6608;48.790;9.198;2022-07-22T05:52:19;188.93;;;76.97;;
13083;SDS011;6608;48.790;9.198;2022-07-22T05:54:46;188.93;;;77.17;;
13083;SDS011;6608;48.790;9.198;2022-07-22T05:57:13;185.53;;;76.33;;
13083;SDS011;6608;48.790;9.198;2022-07-22T05:59:39;190.00;;;76.20;;
13083;SDS011;6608;48.790;9.198;2022-07-22T06:02:06;185.90;;;77.20;;
13083;SDS011;6608;48.790;9.198;2022-07-22T06:04:33;186.47;;;76.93;;
13083;SDS011;6608;48.790;9.198;2022-07-22T06:07:00;189.67;;;77.77;;
13083;SDS011;6608;48.790;9.198;2022-07-22T06:09:26;187.07;;;76.57;;
13083;SDS011;6608;48.790;9.198;2022-07-22T06:11:54;187.70;;;77.20;;
13083;SDS011;6608;48.790;9.198;2022-07-22T06:14:21;189.07;;;76.53;;
13083;SDS011;6608;48.790;9.198;2022-07-22T06:16:47;193.13;;;77.73;;
13083;SDS011;6608;48.790;9.198;2022-07-22T06:19:14;187.40;;;76.73;;
13083;SDS011;6608;48.790;9.198;2022-07-22T06:21:40;193.40;;;78.87;;
13083;SDS011;6608;48.790;9.198;2022-07-22T06:24:07;188.03;;;79.20;;
13083;SDS011;6608;48.790;9.198;2022-07-22T06:26:33;186.70;;;77.07;;
13083;SDS011;6608;48.790;9.198;2022-07-22T06:29:01;188.90;;;80.20;;
13083;SDS011;6608;48.790;9.198;2022-07-22T06:31:28;194.03;;;82.87;;
13083;SDS011;6608;48.790;9.198;2022-07-22T06:33:54;192.13;;;80.33;;
13083;SDS011;6608;48.790;9.198;2022-07-22T06:36:21;190.20;;;79.23;;
13083;SDS011;6608;48.790;9.198;2022-07-22T06:38:47;198.87;;;81.17;;
13083;SDS011;6608;48.790;9.198;2022-07-22T06:41:13;189.63;;;80.73;;
13083;SDS011;6608;48.790;9.198;2022-07-22T06:43:44;191.10;;;77.70;;
13083;SDS011;6608;48.790;9.198;2022-07-22T06:46:12;189.07;;;80.57;;
13083;SDS011;6608;48.790;9.198;2022-07-22T06:48:38;189.50;;;79.33;;
13083;SDS011;6608;48.790;9.198;2022-07-22T06:51:05;185.93;;;77.97;;
13083;SDS011;6608;48.790;9.198;2022-07-22T06:53:31;188.63;;;79.60;;
13083;SDS011;6608;48.790;9.198;2022-07-22T06:55:58;187.50;;;79.77;;
13083;SDS011;6608;48.790;9.198;2022-07-22T06:58:24;194.10;;;80.13;;
13083;SDS011;6608;48.790;9.198;2022-07-22T07:00:51;191.43;;;83.17;;
13083;SDS011;6608;48.790;9.198;2022-07-22T07:03:18;189.33;;;77.77;;
13083;SDS011;6608;48.790;9.198;2022-07-22T07:05:46;190.07;;;82.00;;
13083;SDS011;6608;48.790;9.198;2022-07-22T07:08:13;186.73;;;78.43;;
13083;SDS011;6608;48.790;9.198;2022-07-22T07:10:39;190.50;;;82.17;;
13083;SDS011;6608;48.790;9.198;2022-07-22T07:13:06;184.77;;;77.37;;
13083;SDS011;6608;48.790;9.198;2022-07-22T07:15:32;190.27;;;81.40;;
13083;SDS011;6608;48.790;9.198;2022-07-22T07:17:59;187.23;;;79.83;;
13083;SDS011;6608;48.790;9.198;2022-07-22T07:20:27;191.40;;;82.07;;
13083;SDS011;6608;48.790;9.198;2022-07-22T07:22:53;186.93;;;78.63;;
13083;SDS011;6608;48.790;9.198;2022-07-22T07:25:20;192.17;;;82.03;;
13083;SDS011;6608;48.790;9.198;2022-07-22T07:27:47;189.37;;;81.47;;
13083;SDS011;6608;48.790;9.198;2022-07-22T07:30:14;189.43;;;80.80;;
13083;SDS011;6608;48.790;9.198;2022-07-22T07:32:40;191.13;;;81.63;;
13083;SDS011;6608;48.790;9.198;2022-07-22T07:35:07;189.73;;;82.67;;
13083;SDS011;6608;48.790;9.198;2022-07-22T07:37:35;191.60;;;82.67;;
13083;SDS011;6608;48.790;9.198;2022-07-22T07:40:01;191.93;;;84.13;;
13083;SDS011;6608;48.790;9.198;2022-07-22T07:42:28;188.00;;;80.37;;
13083;SDS011;6608;48.790;9.198;2022-07-22T07:44:54;192.73;;;81.53;;
13083;SDS011;6608;48.790;9.198;2022-07-22T07:47:21;186.13;;;79.57;;
13083;SDS011;6608;48.790;9.198;2022-07-22T07:49:48;189.47;;;79.93;;
13083;SDS011;6608;48.790;9.198;2022-07-22T07:52:14;186.30;;;78.70;;
13083;SDS011;6608;48.790;9.198;2022-07-22T07:54:42;188.23;;;80.07;;
13083;SDS011;6608;48.790;9.198;2022-07-22T07:57:09;190.17;;;80.00;;
13083;SDS011;6608;48.790;9.198;2022-07-22T07:59:36;188.50;;;79.83;;
13083;SDS011;6608;48.790;9.198;2022-07-22T08:02:06;191.03;;;82.27;;
13083;SDS011;6608;48.790;9.198;2022-07-22T08:04:32;187.57;;;79.07;;
13083;SDS011;6608;48.790;9.198;2022-07-22T08:06:59;187.97;;;79.57;;
13083;SDS011;6608;48.790;9.198;2022-07-22T08:09:25;185.73;;;79.00;;
13083;SDS011;6608;48.790;9.198;2022-07-22T08:11:53;187.80;;;79.53;;
13083;SDS011;6608;48.790;9.198;2022-07-22T08:14:20;189.23;;;80.00;;
13083;SDS011;6608;48.790;9.198;2022-07-22T08:16:48;190.87;;;81.37;;
13083;SDS011;6608;48.790;9.198;2022-07-22T08:19:14;186.97;;;79.50;;
13083;SDS011;6608;48.790;9.198;2022-07-22T08:21:40;188.10;;;80.80;;
13083;SDS011;6608;48.790;9.198;2022-07-22T08:24:07;185.97;;;79.43;;
13083;SDS011;6608;48.790;9.198;2022-07-22T08:26:34;190.97;;;81.67;;
13083;SDS011;6608;48.790;9.198;2022-07-22T08:29:02;186.60;;;80.80;;
13083;SDS011;6608;48.790;9.198;2022-07-22T08:31:28;190.63;;;81.47;;
13083;SDS011;6608;48.790;9.198;2022-07-22T08:33:57;190.23;;;80.83;;
13083;SDS011;6608;48.790;9.198;2022-07-22T08:36:24;187.97;;;79.63;;
13083;SDS011;6608;48.790;9.198;2022-07-22T08:38:50;191.43;;;80.30;;
13083;SDS011;6608;48.790;9.198;2022-07-22T08:41:18;188.30;;;80.50;;
13083;SDS011;6608;48.790;9.198;2022-07-22T08:43:45;187.37;;;80.67;;
13083;SDS011;6608;48.790;9.198;2022-07-22T08:46:14;189.77;;;80.83;;
13083;SDS011;6608;48.790;9.198;2022-07-22T08:48:40;184.77;;;78.23;;
13083;SDS011;6608;48.790;9.198;2022-07-22T08:51:07;184.87;;;79.77;;
13083;SDS011;6608;48.790;9.198;2022-07-22T08:53:33;190.77;;;79.90;;
13083;SDS011;6608;48.790;9.198;2022-07-22T08:56:00;186.37;;;80.13;;
13083;SDS011;6608;48.790;9.198;2022-07-22T08:58:27;188.23;;;80.50;;
13083;SDS011;6608;48.790;9.198;2022-07-22T09:01:03;186.70;;;80.33;;
13083;SDS011;6608;48.790;9.198;2022-07-22T09:03:31;187.87;;;79.03;;
13083;SDS011;6608;48.790;9.198;2022-07-22T09:05:58;189.57;;;79.83;;
13083;SDS011;6608;48.790;9.198;2022-07-22T09:08:24;184.50;;;80.07;;
13083;SDS011;6608;48.790;9.198;2022-07-22T09:10:51;185.97;;;79.37;;
13083;SDS011;6608;48.790;9.198;2022-07-22T09:13:17;184.20;;;79.07;;
13083;SDS011;6608;48.790;9.198;2022-07-22T09:15:48;188.20;;;81.70;;
13083;SDS011;6608;48.790;9.198;2022-07-22T09:18:14;186.43;;;80.37;;
13083;SDS011;6608;48.790;9.198;2022-07-22T09:20:42;185.67;;;80.00;;
13083;SDS011;6608;48.790;9.198;2022-07-22T09:23:10;187.13;;;79.93;;
13083;SDS011;6608;48.790;9.198;2022-07-22T09:25:38;187.10;;;80.07;;
13083;SDS011;6608;48.790;9.198;2022-07-22T09:28:12;188.93;;;80.50;;
13083;SDS011;6608;48.790;9.198;2022-07-22T09:30:40;185.80;;;80.13;;
13083;SDS011;6608;48.790;9.198;2022-07-22T09:33:07;186.30;;;80.60;;
13083;SDS011;6608;48.790;9.198;2022-07-22T09:35:34;184.20;;;80.73;;
13083;SDS011;6608;48.790;9.198;2022-07-22T09:38:02;186.40;;;81.43;;
13083;SDS011;6608;48.790;9.198;2022-07-22T09:40:30;188.43;;;81.87;;
13083;SDS011;6608;48.790;9.198;2022-07-22T09:42:58;183.57;;;80.47;;
13083;SDS011;6608;48.790;9.198;2022-07-22T09:45:25;183.37;;;80.10;;
13083;SDS011;6608;48.790;9.198;2022-07-22T09:47:53;186.43;;;80.30;;
13083;SDS011;6608;48.790;9.198;2022-07-22T09:50:25;184.43;;;81.33;;
13083;SDS011;6608;48.790;9.198;2022-07-22T09:52:53;185.77;;;81.90;;
13083;SDS011;6608;48.790;9.198;2022-07-22T09:55:21;190.60;;;82.07;;
13083;SDS011;6608;48.790;9.198;2022-07-22T09:57:49;185.93;;;82.33;;
13083;SDS011;6608;48.790;9.198;2022-07-22T10:00:17;185.37;;;81.87;;
13083;SDS011;6608;48.790;9.198;2022-07-22T10:02:47;184.83;;;82.50;;
13083;SDS011;6608;48.790;9.198;2022-07-22T10:05:14;188.53;;;82.73;;
13083;SDS011;6608;48.790;9.198;2022-07-22T10:07:41;188.10;;;84.47;;
13083;SDS011;6608;48.790;9.198;2022-07-22T10:10:09;187.70;;;85.80;;
13083;SDS011;6608;48.790;9.198;2022-07-22T10:12:37;187.67;;;84.77;;
13083;SDS011;6608;48.790;9.198;2022-07-22T10:15:04;184.80;;;81.73;;
13083;SDS011;6608;48.790;9.198;2022-07-22T10:17:32;188.27;;;82.63;;
13083;SDS011;6608;48.790;9.198;2022-07-22T10:19:59;186.07;;;84.00;;
13083;SDS011;6608;48.790;9.198;2022-07-22T10:22:44;184.60;;;82.10;;
13083;SDS011;6608;48.790;9.198;2022-07-22T10:25:13;186.10;;;84.37;;
13083;SDS011;6608;48.790;9.198;2022-07-22T10:27:48;184.68;;;83.97;;
13083;SDS011;6608;48.790;9.198;2022-07-22T10:30:16;185.63;;;84.05;;
13083;SDS011;6608;48.790;9.198;2022-07-22T10:32:42;183.63;;;84.18;;
13083;SDS011;6608;48.790;9.198;2022-07-22T10:35:22;186.70;;;84.93;;
13083;SDS011;6608;48.790;9.198;2022-07-22T10:37:49;195.77;;;94.57;;
13083;SDS011;6608;48.790;9.198;2022-07-22T10:40:18;186.30;;;84.97;;
13083;SDS011;6608;48.790;9.198;2022-07-22T10:45:33;183.52;;;81.97;;
13083;SDS011;6608;48.790;9.198;2022-07-22T10:48:01;184.95;;;83.75;;
13083;SDS011;6608;48.790;9.198;2022-07-22T10:50:47;187.57;;;84.67;;
13083;SDS011;6608;48.790;9.198;2022-07-22T10:53:15;185.85;;;83.35;;
13083;SDS011;6608;48.790;9.198;2022-07-22T10:56:05;186.37;;;84.27;;
13083;SDS011;6608;48.790;9.198;2022-07-22T10:58:38;188.23;;;83.73;;
13083;SDS011;6608;48.790;9.198;2022-07-22T11:01:08;188.60;;;82.83;;
13083;SDS011;6608;48.790;9.198;2022-07-22T11:03:36;188.03;;;82.73;;
13083;SDS011;6608;48.790;9.198;2022-07-22T11:06:12;190.40;;;83.77;;
13083;SDS011;6608;48.790;9.198;2022-07-22T11:08:39;191.43;;;82.43;;
13083;SDS011;6608;48.790;9.198;2022-07-22T11:11:06;187.03;;;82.33;;
13083;SDS011;6608;48.790;9.198;2022-07-22T11:13:33;188.27;;;82.33;;
13083;SDS011;6608;48.790;9.198;2022-07-22T11:16:14;187.77;;;82.53;;
13083;SDS011;6608;48.790;9.198;2022-07-22T11:18:44;189.60;;;82.93;;
13083;SDS011;6608;48.790;9.198;2022-07-22T11:21:11;184.50;;;83.00;;
13083;SDS011;6608;48.790;9.198;2022-07-22T11:23:39;186.93;;;83.43;;
13083;SDS011;6608;48.790;9.198;2022-07-22T11:26:06;185.10;;;83.03;;
13083;SDS011;6608;48.790;9.198;2022-07-22T11:34:41;187.10;;;82.93;;
13083;SDS011;6608;48.790;9.198;2022-07-22T11:37:10;186.25;;;82.63;;
13083;SDS011;6608;48.790;9.198;2022-07-22T11:39:37;186.82;;;82.00;;
13083;SDS011;6608;48.790;9.198;2022-07-22T11:42:03;189.85;;;82.68;;
13083;SDS011;6608;48.790;9.198;2022-07-22T11:44:30;187.27;;;83.05;;
13083;SDS011;6608;48.790;9.198;2022-07-22T11:46:57;189.30;;;84.47;;
13083;SDS011;6608;48.790;9.198;2022-07-22T11:49:24;188.93;;;83.47;;
13083;SDS011;6608;48.790;9.198;2022-07-22T11:51:53;186.30;;;83.32;;
13083;SDS011;6608;48.790;9.198;2022-07-22T11:54:19;192.50;;;83.90;;
13083;SDS011;6608;48.790;9.198;2022-07-22T11:56:46;189.23;;;84.00;;
13083;SDS011;6608;48.790;9.198;2022-07-22T11:59:13;188.38;;;84.07;;
13083;SDS011;6608;48.790;9.198;2022-07-22T12:01:40;191.38;;;84.20;;
13083;SDS011;6608;48.790;9.198;2022-07-22T12:04:07;188.13;;;85.22;;
13083;SDS011;6608;48.790;9.198;2022-07-22T12:06:34;187.95;;;83.43;;
13083;SDS011;6608;48.790;9.198;2022-07-22T12:09:05;190.15;;;84.18;;
13083;SDS011;6608;48.790;9.198;2022-07-22T12:11:33;190.23;;;84.82;;
13083;SDS011;6608;48.790;9.198;2022-07-22T12:14:04;188.85;;;84.43;;
13083;SDS011;6608;48.790;9.198;2022-07-22T12:16:31;185.75;;;84.10;;
13083;SDS011;6608;48.790;9.198;2022-07-22T12:18:58;186.23;;;83.63;;
13083;SDS011;6608;48.790;9.198;2022-07-22T12:21:25;186.05;;;82.72;;
13083;SDS011;6608;48.790;9.198;2022-07-22T12:23:53;186.32;;;85.05;;
13083;SDS011;6608;48.790;9.198;2022-07-22T12:29:13;190.80;;;83.90;;
13083;SDS011;6608;48.790;9.198;2022-07-22T12:31:41;187.00;;;83.47;;
13083;SDS011;6608;48.790;9.198;2022-07-22T12:34:07;186.27;;;84.80;;
13083;SDS011;6608;48.790;9.198;2022-07-22T12:36:34;187.98;;;86.63;;
13083;SDS011;6608;48.790;9.198;2022-07-22T12:39:10;190.07;;;85.93;;
13083;SDS011;6608;48.790;9.198;2022-07-22T12:41:43;186.10;;;84.78;;
13083;SDS011;6608;48.790;9.198;2022-07-22T12:44:15;187.07;;;84.43;;
13083;SDS011;6608;48.790;9.198;2022-07-22T12:46:45;188.00;;;84.15;;
13083;SDS011;6608;48.790;9.198;2022-07-22T12:49:12;186.27;;;83.85;;
13083;SDS011;6608;48.790;9.198;2022-07-22T12:51:38;200.77;;;95.90;;
13083;SDS011;6608;48.790;9.198;2022-07-22T12:54:05;187.65;;;84.78;;
13083;SDS011;6608;48.790;9.198;2022-07-22T12:56:32;188.35;;;85.03;;
13083;SDS011;6608;48.790;9.198;2022-07-22T12:58:59;191.77;;;85.78;;
13083;SDS011;6608;48.790;9.198;2022-07-22T13:01:26;188.43;;;84.10;;
13083;SDS011;6608;48.790;9.198;2022-07-22T13:03:53;187.65;;;84.22;;
13083;SDS011;6608;48.790;9.198;2022-07-22T13:06:19;185.63;;;84.32;;
13083;SDS011;6608;48.790;9.198;2022-07-22T13:08:46;186.95;;;83.68;;
13083;SDS011;6608;48.790;9.198;2022-07-22T13:11:12;195.07;;;84.80;;
13083;SDS011;6608;48.790;9.198;2022-07-22T13:13:39;186.77;;;82.78;;
13083;SDS011;6608;48.790;9.198;2022-07-22T13:16:07;190.95;;;83.38;;
13083;SDS011;6608;48.790;9.198;2022-07-22T13:18:35;184.85;;;83.28;;
13083;SDS011;6608;48.790;9.198;2022-07-22T13:21:01;186.57;;;82.72;;
13083;SDS011;6608;48.790;9.198;2022-07-22T13:23:28;186.20;;;83.10;;
13083;SDS011;6608;48.790;9.198;2022-07-22T13:25:55;186.63;;;82.43;;
13083;SDS011;6608;48.790;9.198;2022-07-22T13:28:21;188.60;;;82.55;;
13083;SDS011;6608;48.790;9.198;2022-07-22T13:30:48;187.45;;;82.68;;
13083;SDS011;6608;48.790;9.198;2022-07-22T13:33:14;186.25;;;82.70;;
13083;SDS011;6608;48.790;9.198;2022-07-22T13:35:43;188.13;;;83.22;;
13083;SDS011;6608;48.790;9.198;2022-07-22T13:38:09;188.23;;;82.28;;
13083;SDS011;6608;48.790;9.198;2022-07-22T13:40:36;189.15;;;82.40;;
13083;SDS011;6608;48.790;9.198;2022-07-22T13:43:03;187.90;;;82.22;;
13083;SDS011;6608;48.790;9.198;2022-07-22T13:45:30;190.10;;;81.60;;
13083;SDS011;6608;48.790;9.198;2022-07-22T13:47:57;185.68;;;81.50;;
13083;SDS011;6608;48.790;9.198;2022-07-22T13:50:24;187.35;;;83.25;;
13083;SDS011;6608;48.790;9.198;2022-07-22T13:52:52;185.10;;;82.95;;
13083;SDS011;6608;48.790;9.198;2022-07-22T13:55:18;185.63;;;82.70;;
13083;SDS011;6608;48.790;9.198;2022-07-22T13:57:45;188.15;;;82.82;;
13083;SDS011;6608;48.790;9.198;2022-07-22T14:00:12;184.85;;;81.63;;
13083;SDS011;6608;48.790;9.198;2022-07-22T14:02:38;188.57;;;83.35;;
13083;SDS011;6608;48.790;9.198;2022-07-22T14:05:05;188.32;;;82.93;;
13083;SDS011;6608;48.790;9.198;2022-07-22T14:07:31;185.57;;;82.00;;
13083;SDS011;6608;48.790;9.198;2022-07-22T14:09:59;186.35;;;82.78;;
13083;SDS011;6608;48.790;9.198;2022-07-22T14:12:26;188.52;;;82.47;;
13083;SDS011;6608;48.790;9.198;2022-07-22T14:14:56;192.60;;;86.68;;
13083;SDS011;6608;48.790;9.198;2022-07-22T14:17:25;187.07;;;82.32;;
13083;SDS011;6608;48.790;9.198;2022-07-22T14:19:52;187.82;;;82.20;;
13083;SDS011;6608;48.790;9.198;2022-07-22T14:22:18;188.33;;;80.83;;
13083;SDS011;6608;48.790;9.198;2022-07-22T14:24:45;188.87;;;81.50;;
13083;SDS011;6608;48.790;9.198;2022-07-22T14:27:15;187.20;;;81.77;;
13083;SDS011;6608;48.790;9.198;2022-07-22T14:29:41;190.20;;;82.50;;
13083;SDS011;6608;48.790;9.198;2022-07-22T14:32:08;187.85;;;81.07;;
13083;SDS011;6608;48.790;9.198;2022-07-22T14:34:34;189.32;;;82.93;;
13083;SDS011;6608;48.790;9.198;2022-07-22T14:37:00;189.40;;;82.50;;